Syracuse, Missouri
Current Conditions -  °F | °C
As of 6:53 PM on Wednesday 17 Dec 2014 (Local Time) from KDMO Reporting Station
Overcast Overcast  
Wind Chill: 26°   Ceiling: 8000
Heat Index: 32°   Visibility: 10mi
Dew Point: 23°   Wind: 6mph
Humidity: 69%   Direction: 70°ENE
Pressure: 30.27"   Gusts: NA
Location:  38.67°N, 92.87°W
Report Text: KDMO 180053Z AUTO 07005KT 10SM OVC080 00/M05 A3027 RMK AO2 SLP260 T00001050
Loading
Personal Weather Stations






























Interactive Weather Map New forecast layout! Learn more

10-Day Weather Forecast

Advertisements
Track Severe Weather on mobile